Higgins Lake, Michigan
Current Conditions -  °F | °C
As of 4:28 PM on Sunday 23 Nov 2014 (Local Time) from KHTL Reporting Station
Haze Haze  
Wind Chill: 42°   Ceiling: 500
Heat Index: 47°   Visibility: 3mi
Dew Point: 45°   Wind: 10mph
Humidity: 93%   Direction: 160°SSE
Pressure: 29.6"   Gusts: NA
Location:  44.48°N, 84.78°W
Report Text: KHTL 232128Z AUTO 16009KT 3SM BR OVC005 08/07 A2960 RMK AO2 T00830072
Loading
Personal Weather Stations






























Interactive Weather Map New forecast layout! Learn more

10-Day Weather Forecast

Advertisements
Track Severe Weather on mobile